KLOZ/LOZ METAR and TAF weather

Enter ICAO airport designator
Station Type Date Time Source
KLOZ METAR 2019/10/23 08:53 UTC NOAA

KLOZ 230853Z AUTO 00000KT 10SM CLR 04/03 A3010 RMK AO2 SLP190 T00440033 51015


Station Type Date Time Source
KLOZ Decoded METAR 2019/10/23 08:53 UTC NOAA

LONDON-CORBIN AIRPORT, KY, United States (KLOZ) 37-05N 084-04W 362M
Oct 23, 2019 - 04:53 AM EDT / 2019.10.23 0853 UTC
Wind: Calm:0
Visibility: 10 mile(s):0
Sky conditions: clear
Temperature: 39.9 F (4.4 C)
Dew Point: 37.9 F (3.3 C)
Relative Humidity: 92%
Pressure (altimeter): 30.1 in. Hg (1019 hPa)
Pressure tendency: 0.04 inches (1.5 hPa) higher than three hours ago
ob: KLOZ 230853Z AUTO 00000KT 10SM CLR 04/03 A3010 RMK AO2 SLP190 T00440033 51015
cycle: 9

Station Type Date Time Source
KLOZ TAF 2019/10/23 06:24 UTC NOAA

TAF KLOZ 230521Z 2306/2406 25005KT P6SM FEW060
FM230800 25003KT P6SM SKC
FM231600 23008G15KT P6SM SKC
FM232300 VRB05KT P6SM SKC

Example: see airport list